createdAt,value
2022-11-01T00:00:35.175Z,17
2022-11-01T00:01:52.280Z,20.9
2022-11-01T00:03:09.384Z,21.2
2022-11-01T00:04:26.488Z,21.5
2022-11-01T00:05:43.593Z,18.3
2022-11-01T00:07:00.697Z,20.6
2022-11-01T00:08:17.801Z,20.6
2022-11-01T00:09:33.922Z,19.3
2022-11-01T00:10:51.027Z,20.6
2022-11-01T00:12:08.131Z,21.5
2022-11-01T00:13:25.236Z,18.6
2022-11-01T00:14:42.340Z,19
2022-11-01T00:15:59.444Z,19.9
2022-11-01T00:17:16.549Z,20.3
2022-11-01T00:18:33.654Z,22.5
2022-11-01T00:19:50.758Z,20.6
2022-11-01T00:21:07.862Z,19.6
2022-11-01T00:22:24.967Z,19
2022-11-01T00:23:42.071Z,20.9
2022-11-01T00:24:59.176Z,22.5
2022-11-01T00:26:15.296Z,19.9
2022-11-01T00:27:32.400Z,20.6
2022-11-01T00:28:49.504Z,19.9
2022-11-01T00:30:06.609Z,21.9
2022-11-01T00:31:23.713Z,20.6
2022-11-01T00:32:40.817Z,20.6
2022-11-01T00:33:57.921Z,21.2
2022-11-01T00:35:15.026Z,19.9
2022-11-01T00:36:32.130Z,20.3
2022-11-01T00:37:49.234Z,20.6
2022-11-01T00:39:06.339Z,20.6
2022-11-01T00:40:23.443Z,20.6
2022-11-01T00:41:40.547Z,20.3
2022-11-01T00:42:56.668Z,20.6
2022-11-01T00:44:13.772Z,19.6
2022-11-01T00:45:30.876Z,22.5
2022-11-01T00:46:47.981Z,20.9
2022-11-01T00:48:05.085Z,20.9
2022-11-01T00:49:22.189Z,21.2
2022-11-01T00:50:39.293Z,20.9
2022-11-01T00:51:56.398Z,21.9
2022-11-01T00:53:13.502Z,21.5
2022-11-01T00:54:30.606Z,16.7
2022-11-01T00:55:47.711Z,20.9
2022-11-01T00:57:04.815Z,20.6
2022-11-01T00:58:21.920Z,20.3
2022-11-01T00:59:38.038Z,20.9
2022-11-01T01:00:55.143Z,23.2
2022-11-01T01:02:12.247Z,18.6
2022-11-01T01:03:29.352Z,20.9
2022-11-01T01:04:46.456Z,20.9
2022-11-01T01:06:03.561Z,20.6
2022-11-01T01:07:20.665Z,20.9
2022-11-01T01:08:37.770Z,21.2
2022-11-01T01:09:54.874Z,21.9
2022-11-01T01:11:11.978Z,20.6
2022-11-01T01:12:29.083Z,20.6
2022-11-01T01:13:46.187Z,20.3
2022-11-01T01:15:03.291Z,20.3
2022-11-01T01:16:19.412Z,20.6
2022-11-01T01:17:36.516Z,21.2
2022-11-01T01:18:53.620Z,17
2022-11-01T01:20:10.725Z,20.9
2022-11-01T01:21:27.829Z,19.3
2022-11-01T01:22:44.934Z,20.3
2022-11-01T01:24:02.038Z,20.9
2022-11-01T01:25:19.143Z,20.6
2022-11-01T01:26:36.247Z,20.6
2022-11-01T01:27:53.352Z,20.9
2022-11-01T01:29:10.456Z,19
2022-11-01T01:30:27.561Z,21.2
2022-11-01T01:31:44.665Z,20.6
2022-11-01T01:33:00.786Z,20.9
2022-11-01T01:34:17.890Z,19.6
2022-11-01T01:35:34.994Z,21.5
2022-11-01T01:36:52.099Z,19.9
2022-11-01T01:38:09.203Z,22.2
2022-11-01T01:39:26.307Z,20.6
2022-11-01T01:40:43.411Z,21.5
2022-11-01T01:42:00.517Z,20.6
2022-11-01T01:43:17.621Z,20.6
2022-11-01T01:44:34.725Z,21.2
2022-11-01T01:45:51.829Z,19.3
2022-11-01T01:47:08.933Z,19.6
2022-11-01T01:48:26.039Z,20.9
2022-11-01T01:49:42.159Z,20.3
2022-11-01T01:50:59.263Z,20.3
2022-11-01T01:52:16.368Z,20.6
2022-11-01T01:53:33.472Z,20.6
2022-11-01T01:54:50.577Z,20.9
2022-11-01T01:56:07.681Z,20.9
2022-11-01T01:57:24.786Z,20.6
2022-11-01T01:58:41.890Z,20.6
2022-11-01T01:59:58.994Z,18.3
2022-11-01T02:01:16.099Z,20.6
2022-11-01T02:02:33.203Z,20.9
2022-11-01T02:03:50.307Z,22.2
2022-11-01T02:05:07.412Z,20.9
2022-11-01T02:06:23.532Z,18.3
2022-11-01T02:07:40.636Z,19.9
2022-11-01T02:08:57.741Z,20.3
2022-11-01T02:10:14.845Z,20.3
2022-11-01T02:11:31.949Z,21.2
2022-11-01T02:12:49.053Z,24.4
2022-11-01T02:14:05.174Z,19.3
2022-11-01T02:15:22.278Z,20.9
2022-11-01T02:16:39.383Z,20.6
2022-11-01T02:17:56.487Z,18.3
2022-11-01T02:19:13.592Z,19.3
2022-11-01T02:20:30.696Z,19.6
2022-11-01T02:21:47.801Z,20.9
2022-11-01T02:23:04.905Z,20.6
2022-11-01T02:24:22.009Z,21.5
2022-11-01T02:25:39.114Z,21.2
2022-11-01T02:26:56.218Z,20.6
2022-11-01T02:28:13.323Z,21.9
2022-11-01T02:29:30.427Z,20.6
2022-11-01T02:30:46.548Z,21.2
2022-11-01T02:32:03.652Z,20.9
2022-11-01T02:33:20.757Z,18.6
2022-11-01T02:34:37.861Z,20.6
2022-11-01T02:35:54.966Z,21.9
2022-11-01T02:37:12.070Z,20.3
2022-11-01T02:38:29.175Z,19.6
2022-11-01T02:39:46.279Z,20.6
2022-11-01T02:41:03.384Z,21.9
2022-11-01T02:42:20.488Z,19.3
2022-11-01T02:43:37.592Z,20.9
2022-11-01T02:44:54.697Z,20.6
2022-11-01T02:46:11.801Z,20.6
2022-11-01T02:47:27.922Z,21.9
2022-11-01T02:48:45.026Z,20.6
2022-11-01T02:50:02.131Z,20.6
2022-11-01T02:51:19.233Z,19.3
2022-11-01T02:52:36.338Z,20.6
2022-11-01T02:53:53.442Z,21.2
2022-11-01T02:55:10.547Z,20.6
2022-11-01T02:56:27.651Z,20.6
2022-11-01T02:57:44.756Z,20.6
2022-11-01T02:59:01.860Z,21.2
2022-11-01T03:00:18.965Z,20.6
2022-11-01T03:01:36.069Z,20.9
2022-11-01T03:02:53.174Z,20.6
2022-11-01T03:04:09.294Z,20.3
2022-11-01T03:05:26.399Z,20.6
2022-11-01T03:06:43.503Z,20.6
2022-11-01T03:08:00.608Z,19.6
2022-11-01T03:09:17.712Z,21.2
2022-11-01T03:10:34.817Z,21.9
2022-11-01T03:11:51.922Z,20.9
2022-11-01T03:13:09.026Z,19.3
2022-11-01T03:14:26.131Z,19.9
2022-11-01T03:15:43.235Z,20.6
2022-11-01T03:17:00.340Z,19.6
2022-11-01T03:18:17.444Z,19.6
2022-11-01T03:19:34.549Z,22.2
2022-11-01T03:20:50.669Z,20.3
2022-11-01T03:22:07.774Z,18
2022-11-01T03:23:24.879Z,19
2022-11-01T03:24:41.983Z,20.6
2022-11-01T03:25:59.088Z,20.3
2022-11-01T03:27:16.192Z,22.5
2022-11-01T03:28:33.297Z,21.2
2022-11-01T03:29:50.401Z,20.9
2022-11-01T03:31:07.505Z,22.2
2022-11-01T03:32:24.610Z,19.6
2022-11-01T03:33:41.715Z,21.5
2022-11-01T03:34:58.819Z,20.9
2022-11-01T03:36:15.924Z,20.9
2022-11-01T03:37:32.044Z,20.6
2022-11-01T03:38:49.148Z,20.6
2022-11-01T03:40:06.253Z,19.3
2022-11-01T03:41:23.357Z,20.3
2022-11-01T03:42:40.463Z,19.3
2022-11-01T03:43:57.567Z,20.6
2022-11-01T03:45:14.672Z,22.2
2022-11-01T03:46:31.776Z,19
2022-11-01T03:47:48.881Z,19.6
2022-11-01T03:49:05.986Z,20.3
2022-11-01T03:50:23.091Z,20.3
2022-11-01T03:51:40.195Z,20.6
2022-11-01T03:52:57.299Z,19
2022-11-01T03:54:13.419Z,19.6
2022-11-01T03:55:30.524Z,18.3
2022-11-01T03:56:47.629Z,20.6
2022-11-01T03:58:04.733Z,22.2
2022-11-01T03:59:21.838Z,20.6
2022-11-01T04:00:38.943Z,20.3
2022-11-01T04:01:56.047Z,19.9
2022-11-01T04:03:13.151Z,20.6
2022-11-01T04:04:30.256Z,20.6
2022-11-01T04:05:47.360Z,20.9
2022-11-01T04:07:04.465Z,19
2022-11-01T04:08:21.570Z,21.5
2022-11-01T04:09:38.674Z,19.9
2022-11-01T04:10:54.794Z,22.2
2022-11-01T04:12:11.899Z,22.2
2022-11-01T04:13:29.003Z,20.6
2022-11-01T04:14:46.108Z,22.5
2022-11-01T04:16:03.212Z,17.7
2022-11-01T04:17:20.316Z,20.9
2022-11-01T04:18:37.421Z,20.9
2022-11-01T04:19:54.526Z,18.6
2022-11-01T04:21:11.630Z,19.3
2022-11-01T04:22:28.735Z,20.3
2022-11-01T04:23:45.839Z,20.6
2022-11-01T04:25:02.943Z,19.9
2022-11-01T04:26:20.048Z,19
2022-11-01T04:27:36.168Z,20.3
2022-11-01T04:28:53.273Z,20.6
2022-11-01T04:30:10.378Z,21.2
2022-11-01T04:31:27.482Z,19.9
2022-11-01T04:32:44.587Z,21.2
2022-11-01T04:34:01.691Z,19
2022-11-01T04:35:18.796Z,18.6
2022-11-01T04:36:35.900Z,19.6
2022-11-01T04:37:53.005Z,21.9
2022-11-01T04:39:10.110Z,20.9
2022-11-01T04:40:27.215Z,21.5
2022-11-01T04:41:44.319Z,21.9
2022-11-01T04:43:01.423Z,20.3
2022-11-01T04:44:17.544Z,20.6
2022-11-01T04:45:34.648Z,19.3
2022-11-01T04:46:51.752Z,20.6
2022-11-01T04:48:08.857Z,19.3
2022-11-01T04:49:25.961Z,22.2
2022-11-01T04:50:43.066Z,20.3
2022-11-01T04:52:00.171Z,20.9
2022-11-01T04:53:17.275Z,20.3
2022-11-01T04:54:34.380Z,18.6
2022-11-01T04:55:51.484Z,20.3
2022-11-01T04:57:08.589Z,20.6
2022-11-01T04:58:25.691Z,20.6
2022-11-01T04:59:42.795Z,19
2022-11-01T05:00:58.916Z,20.6
2022-11-01T05:02:16.020Z,19.3
2022-11-01T05:03:33.125Z,20.3
2022-11-01T05:04:50.229Z,20.9
2022-11-01T05:06:07.334Z,20.3
2022-11-01T05:07:24.438Z,21.5
2022-11-01T05:08:41.543Z,20.3
2022-11-01T05:09:58.647Z,20.3
2022-11-01T05:11:15.752Z,19.3
2022-11-01T05:12:32.856Z,21.5
2022-11-01T05:13:49.961Z,19.3
2022-11-01T05:15:07.065Z,20.3
2022-11-01T05:16:24.170Z,18.6
2022-11-01T05:17:40.290Z,20.6
2022-11-01T05:18:57.394Z,20.6
2022-11-01T05:20:14.499Z,19.3
2022-11-01T05:21:31.603Z,20.3
2022-11-01T05:22:48.708Z,18.3
2022-11-01T05:24:05.812Z,22.2
2022-11-01T05:25:22.917Z,20.3
2022-11-01T05:26:40.021Z,20.3
2022-11-01T05:27:57.126Z,20.6
2022-11-01T05:29:14.230Z,20.3
2022-11-01T05:30:31.335Z,17.7
2022-11-01T05:31:48.439Z,20.6
2022-11-01T05:33:05.543Z,19.9
2022-11-01T05:34:21.664Z,20.3
2022-11-01T05:35:38.769Z,19.9
2022-11-01T05:36:55.873Z,20.6
2022-11-01T05:38:12.978Z,20.9
2022-11-01T05:39:30.082Z,22.5
2022-11-01T05:40:47.186Z,20.9
2022-11-01T05:42:04.291Z,20.6
2022-11-01T05:43:21.395Z,19.6
2022-11-01T05:44:38.500Z,20.3
2022-11-01T05:45:55.604Z,20.9
2022-11-01T05:47:12.709Z,20.6
2022-11-01T05:48:29.813Z,19.6
2022-11-01T05:49:46.918Z,20.6
2022-11-01T05:51:03.038Z,21.2
2022-11-01T05:52:20.143Z,20.6
2022-11-01T05:53:37.247Z,20.9
2022-11-01T05:54:54.352Z,20.9
2022-11-01T05:56:11.456Z,19.3
2022-11-01T05:57:28.561Z,21.2
2022-11-01T05:58:45.665Z,21.5
2022-11-01T06:00:02.770Z,21.5
2022-11-01T06:01:19.874Z,20.6
2022-11-01T06:02:36.977Z,17.4
2022-11-01T06:03:54.081Z,21.2
2022-11-01T06:05:11.186Z,21.9
2022-11-01T06:06:28.290Z,21.2
2022-11-01T06:07:44.410Z,21.2
2022-11-01T06:09:01.515Z,22.5
2022-11-01T06:10:18.620Z,20.9
2022-11-01T06:11:35.724Z,20.6
2022-11-01T06:12:52.828Z,17
2022-11-01T06:14:09.933Z,20.3
2022-11-01T06:15:27.037Z,20.6
2022-11-01T06:16:44.141Z,20.3
2022-11-01T06:18:01.246Z,20.9
2022-11-01T06:19:18.350Z,20.9
2022-11-01T06:20:35.455Z,20.9
2022-11-01T06:21:52.560Z,22.2
2022-11-01T06:23:09.664Z,20.3
2022-11-01T06:24:25.784Z,19.9
2022-11-01T06:25:42.888Z,20.3
2022-11-01T06:26:59.993Z,20.9
2022-11-01T06:28:17.097Z,19
2022-11-01T06:29:34.201Z,24.8
2022-11-01T06:30:51.305Z,20.6
2022-11-01T06:32:07.426Z,19.3
2022-11-01T06:33:24.530Z,21.9
2022-11-01T06:34:41.635Z,20.9
2022-11-01T06:35:58.739Z,20.9
2022-11-01T06:37:15.843Z,21.9
2022-11-01T06:38:32.948Z,22.2
2022-11-01T06:39:50.052Z,20.3
2022-11-01T06:41:07.157Z,19.6
2022-11-01T06:42:24.261Z,19.6
2022-11-01T06:43:41.366Z,21.2
2022-11-01T06:44:58.470Z,19.3
2022-11-01T06:46:15.574Z,21.5
2022-11-01T06:47:32.679Z,19.9
2022-11-01T06:48:48.799Z,20.9
2022-11-01T06:50:05.904Z,18.6
2022-11-01T06:51:23.008Z,21.9
2022-11-01T06:52:40.113Z,19.3
2022-11-01T06:53:57.217Z,20.9
2022-11-01T06:55:14.322Z,20.9
2022-11-01T06:56:31.426Z,20.9
2022-11-01T06:57:48.531Z,22.5
2022-11-01T06:59:05.636Z,20.9
2022-11-01T07:00:22.740Z,20.3
2022-11-01T07:01:39.845Z,20.9
2022-11-01T07:02:56.949Z,21.9
2022-11-01T07:04:14.054Z,20.6
2022-11-01T07:05:30.174Z,21.2
2022-11-01T07:06:47.279Z,21.5
2022-11-01T07:08:04.383Z,21.9
2022-11-01T07:09:21.487Z,20.9
2022-11-01T07:10:38.591Z,20.9
2022-11-01T07:11:55.695Z,20.9
2022-11-01T07:13:12.799Z,20.9
2022-11-01T07:14:29.903Z,19.6
2022-11-01T07:15:47.007Z,20.3
2022-11-01T07:17:04.112Z,20.6
2022-11-01T07:18:21.216Z,19.3
2022-11-01T07:19:38.320Z,21.9
2022-11-01T07:20:55.424Z,19.9
2022-11-01T07:22:11.544Z,20.6
2022-11-01T07:23:28.648Z,20.9
2022-11-01T07:24:45.752Z,21.5
2022-11-01T07:26:02.855Z,20.6
2022-11-01T07:27:19.959Z,22.2
2022-11-01T07:28:37.063Z,22.2
2022-11-01T07:29:54.168Z,19.6
2022-11-01T07:31:11.270Z,21.2
2022-11-01T07:32:28.374Z,21.2
2022-11-01T07:33:45.477Z,21.5
2022-11-01T07:35:02.581Z,19.6
2022-11-01T07:36:19.685Z,21.9
2022-11-01T07:37:36.789Z,20.9
2022-11-01T07:38:52.909Z,21.5
2022-11-01T07:40:10.013Z,21.9
2022-11-01T07:41:27.117Z,20.9
2022-11-01T07:42:44.221Z,20.9
2022-11-01T07:44:01.325Z,20.6
2022-11-01T07:45:18.429Z,19.6
2022-11-01T07:46:35.533Z,22.2
2022-11-01T07:47:52.637Z,21.2
2022-11-01T07:49:09.741Z,21.2
2022-11-01T07:50:26.845Z,20.9
2022-11-01T07:51:43.949Z,21.2
2022-11-01T07:53:01.053Z,20.9
2022-11-01T07:54:18.157Z,21.9
2022-11-01T07:55:34.277Z,20.9
2022-11-01T07:56:51.380Z,20.3
2022-11-01T07:58:08.485Z,20.9
2022-11-01T07:59:25.589Z,18.3
2022-11-01T08:00:42.693Z,21.2
2022-11-01T08:01:59.797Z,20.3
2022-11-01T08:03:16.901Z,20.6
2022-11-01T08:04:34.005Z,19.9
2022-11-01T08:05:51.110Z,21.9
2022-11-01T08:07:08.214Z,21.2
2022-11-01T08:08:25.318Z,20.9
2022-11-01T08:09:42.422Z,21.2
2022-11-01T08:10:59.526Z,19.9
2022-11-01T08:12:15.646Z,20.9
2022-11-01T08:13:32.750Z,20.9
2022-11-01T08:14:49.855Z,21.2
2022-11-01T08:16:06.959Z,21.2
2022-11-01T08:17:24.063Z,21.2
2022-11-01T08:18:41.166Z,18.6
2022-11-01T08:19:58.270Z,19.6
2022-11-01T08:21:15.374Z,20.9
2022-11-01T08:22:32.479Z,21.2
2022-11-01T08:23:49.583Z,20.9
2022-11-01T08:25:06.687Z,21.9
2022-11-01T08:26:23.791Z,19.6
2022-11-01T08:27:40.895Z,19.3
2022-11-01T08:28:57.016Z,20.9
2022-11-01T08:30:14.120Z,21.5
2022-11-01T08:31:31.224Z,21.5
2022-11-01T08:32:48.328Z,19.6
2022-11-01T08:34:05.432Z,21.5
2022-11-01T08:35:22.537Z,20.6
2022-11-01T08:36:39.641Z,22.5
2022-11-01T08:37:56.745Z,21.2
2022-11-01T08:39:13.849Z,19.6
2022-11-01T08:40:30.953Z,20.9
2022-11-01T08:41:48.057Z,21.2
2022-11-01T08:43:05.161Z,19
2022-11-01T08:44:22.266Z,21.5
2022-11-01T08:45:38.386Z,21.2
2022-11-01T08:46:55.490Z,20.3
2022-11-01T08:48:12.594Z,21.2
2022-11-01T08:49:29.698Z,22.5
2022-11-01T08:50:46.802Z,19.9
2022-11-01T08:52:03.906Z,21.5
2022-11-01T08:53:21.010Z,21.2
2022-11-01T08:54:38.114Z,19.6
2022-11-01T08:55:55.218Z,21.5
2022-11-01T08:57:12.322Z,21.2
2022-11-01T08:58:29.426Z,20.9
2022-11-01T08:59:46.530Z,19.9
2022-11-01T09:01:03.634Z,20.9
2022-11-01T09:02:19.754Z,23.2
2022-11-01T09:03:36.858Z,21.5
2022-11-01T09:04:53.962Z,21.2
2022-11-01T09:06:11.066Z,21.2
2022-11-01T09:07:28.170Z,21.5
2022-11-01T09:08:45.274Z,19.6
2022-11-01T09:10:02.378Z,20.3
2022-11-01T09:11:19.482Z,21.5
2022-11-01T09:12:36.587Z,20.6
2022-11-01T09:13:53.691Z,21.2
2022-11-01T09:15:10.795Z,21.9
2022-11-01T09:16:27.900Z,18.6
2022-11-01T09:17:45.004Z,20.3
2022-11-01T09:19:01.124Z,21.5
2022-11-01T09:20:18.229Z,21.5
2022-11-01T09:21:35.333Z,20.6
2022-11-01T09:22:52.437Z,21.9
2022-11-01T09:24:09.541Z,20.6
2022-11-01T09:25:26.645Z,23.5
2022-11-01T09:26:43.749Z,21.9
2022-11-01T09:28:00.853Z,20.6
2022-11-01T09:29:17.958Z,21.9
2022-11-01T09:30:35.062Z,22.2
2022-11-01T09:31:52.166Z,22.2
2022-11-01T09:33:09.270Z,22.2
2022-11-01T09:34:26.374Z,21.5
2022-11-01T09:35:42.494Z,22.2
2022-11-01T09:36:59.598Z,21.2
2022-11-01T09:38:16.702Z,19.9
2022-11-01T09:39:33.806Z,21.2
2022-11-01T09:40:50.910Z,22.5
2022-11-01T09:42:08.014Z,22.5
2022-11-01T09:43:25.118Z,22.5
2022-11-01T09:44:42.222Z,24.8
2022-11-01T09:45:59.326Z,21.9
2022-11-01T09:47:16.430Z,23.8
2022-11-01T09:48:33.535Z,21.5
2022-11-01T09:49:50.639Z,22.5
2022-11-01T09:51:07.743Z,24.1
2022-11-01T09:52:23.863Z,21.2
2022-11-01T09:53:40.968Z,19.9
2022-11-01T09:54:58.072Z,22.8
2022-11-01T09:56:15.176Z,23.5
2022-11-01T09:57:32.280Z,23.2
2022-11-01T09:58:49.384Z,22.2
2022-11-01T10:00:06.488Z,22.5
2022-11-01T10:01:23.592Z,21.5
2022-11-01T10:02:40.696Z,22.5
2022-11-01T10:03:57.801Z,22.5
2022-11-01T10:05:14.905Z,21.2
2022-11-01T10:06:32.009Z,23.8
2022-11-01T10:07:49.113Z,23.5
2022-11-01T10:09:05.234Z,22.5
2022-11-01T10:10:22.338Z,22.8
2022-11-01T10:11:39.442Z,21.5
2022-11-01T10:12:56.546Z,24.1
2022-11-01T10:14:13.650Z,22.2
2022-11-01T10:15:30.755Z,23.2
2022-11-01T10:16:47.859Z,22.5
2022-11-01T10:18:04.963Z,22.2
2022-11-01T10:19:22.067Z,22.2
2022-11-01T10:20:39.171Z,24.4
2022-11-01T10:21:56.275Z,21.5
2022-11-01T10:23:13.380Z,23.5
2022-11-01T10:24:30.484Z,23.8
2022-11-01T10:25:46.604Z,21.9
2022-11-01T10:27:03.708Z,23.5
2022-11-01T10:28:20.812Z,24.1
2022-11-01T10:29:37.916Z,23.2
2022-11-01T10:30:55.020Z,23.8
2022-11-01T10:32:12.124Z,23.5
2022-11-01T10:33:29.228Z,25.4
2022-11-01T10:34:46.332Z,23.2
2022-11-01T10:36:03.436Z,23.8
2022-11-01T10:37:20.540Z,23.8
2022-11-01T10:38:37.644Z,23.8
2022-11-01T10:39:54.748Z,21.5
2022-11-01T10:41:11.853Z,24.8
2022-11-01T10:42:27.973Z,23.5
2022-11-01T10:43:45.077Z,23.2
2022-11-01T10:45:02.182Z,24.1
2022-11-01T10:46:19.286Z,23.8
2022-11-01T10:47:36.390Z,24.1
2022-11-01T10:48:53.494Z,22.5
2022-11-01T10:50:09.614Z,24.1
2022-11-01T10:51:26.718Z,20.9
2022-11-01T10:52:43.822Z,24.1
2022-11-01T10:54:00.925Z,24.1
2022-11-01T10:55:18.029Z,23.2
2022-11-01T10:56:35.133Z,24.4
2022-11-01T10:57:52.237Z,26.1
2022-11-01T10:59:09.341Z,23.5
2022-11-01T11:00:26.445Z,23.8
2022-11-01T11:01:43.549Z,25.4
2022-11-01T11:03:00.653Z,22.2
2022-11-01T11:04:17.757Z,24.4
2022-11-01T11:05:34.861Z,23.5
2022-11-01T11:06:50.981Z,24.4
2022-11-01T11:08:08.085Z,24.8
2022-11-01T11:09:25.189Z,24.8
2022-11-01T11:10:42.292Z,24.4
2022-11-01T11:11:59.397Z,23.2
2022-11-01T11:13:16.502Z,24.1
2022-11-01T11:14:33.606Z,23.2
2022-11-01T11:15:50.710Z,23.2
2022-11-01T11:17:07.813Z,26.1
2022-11-01T11:18:24.917Z,25.1
2022-11-01T11:19:42.021Z,24.1
2022-11-01T11:20:59.125Z,26.4
2022-11-01T11:22:16.230Z,24.8
2022-11-01T11:23:32.350Z,23.2
2022-11-01T11:24:49.454Z,26.4
2022-11-01T11:26:06.558Z,22.5
2022-11-01T11:27:23.662Z,22.8
2022-11-01T11:28:40.766Z,23.2
2022-11-01T11:29:57.871Z,24.1
2022-11-01T11:31:14.975Z,22.8
2022-11-01T11:32:32.079Z,24.1
2022-11-01T11:33:49.183Z,24.4
2022-11-01T11:35:06.287Z,24.1
2022-11-01T11:36:23.392Z,24.1
2022-11-01T11:37:40.496Z,23.8
2022-11-01T11:38:57.600Z,23.5
2022-11-01T11:40:13.720Z,24.8
2022-11-01T11:41:30.824Z,23.8
2022-11-01T11:42:47.928Z,24.1
2022-11-01T11:44:05.032Z,24.1
2022-11-01T11:45:22.136Z,24.4
2022-11-01T11:46:39.240Z,24.1
2022-11-01T11:47:56.344Z,25.4
2022-11-01T11:49:13.448Z,23.8
2022-11-01T11:50:30.552Z,25.4
2022-11-01T11:51:47.657Z,24.4
2022-11-01T11:53:04.761Z,24.8
2022-11-01T11:54:21.865Z,25.1
2022-11-01T11:55:38.970Z,26.1
2022-11-01T11:56:55.090Z,24.8
2022-11-01T11:58:12.194Z,24.4
2022-11-01T11:59:29.298Z,23.2
2022-11-01T12:00:46.402Z,25.7
2022-11-01T12:02:03.506Z,23.8
2022-11-01T12:03:20.610Z,24.4
2022-11-01T12:04:37.714Z,24.4
2022-11-01T12:05:54.818Z,24.4
2022-11-01T12:07:11.922Z,24.4
2022-11-01T12:08:29.026Z,23.5
2022-11-01T12:09:46.131Z,23.5
2022-11-01T12:11:03.235Z,24.1
2022-11-01T12:12:20.339Z,25.7
2022-11-01T12:13:36.459Z,24.1
2022-11-01T12:14:53.563Z,24.4
2022-11-01T12:16:10.667Z,24.4
2022-11-01T12:17:27.771Z,25.1
2022-11-01T12:18:44.876Z,21.2
2022-11-01T12:20:01.980Z,24.8
2022-11-01T12:21:19.084Z,24.8
2022-11-01T12:22:36.187Z,25.7
2022-11-01T12:23:53.291Z,23.8
2022-11-01T12:25:10.395Z,24.1
2022-11-01T12:26:27.500Z,23.2
2022-11-01T12:27:44.604Z,24.4
2022-11-01T12:29:01.708Z,22.5
2022-11-01T12:30:17.829Z,24.8
2022-11-01T12:31:34.933Z,24.4
2022-11-01T12:32:52.037Z,25.1
2022-11-01T12:35:26.244Z,26.1
2022-11-01T12:36:43.349Z,23.8
2022-11-01T12:38:00.453Z,25.1
2022-11-01T12:39:17.557Z,21.9
2022-11-01T12:40:34.661Z,25.4
2022-11-01T12:41:51.763Z,24.4
2022-11-01T12:43:08.867Z,25.7
2022-11-01T12:44:25.971Z,25.4
2022-11-01T12:45:43.075Z,24.1
2022-11-01T12:46:59.196Z,24.8
2022-11-01T12:48:16.300Z,24.8
2022-11-01T12:49:33.404Z,22.2
2022-11-01T12:50:50.508Z,25.1
2022-11-01T12:52:07.612Z,25.1
2022-11-01T12:53:24.717Z,24.8
2022-11-01T12:54:41.821Z,23.5
2022-11-01T12:55:58.925Z,24.8
2022-11-01T12:57:16.029Z,25.4
2022-11-01T12:58:33.133Z,22.8
2022-11-01T12:59:50.237Z,24.8
2022-11-01T13:01:07.341Z,25.7
2022-11-01T13:02:24.445Z,24.8
2022-11-01T13:03:40.566Z,24.8
2022-11-01T13:04:57.670Z,23.2
2022-11-01T13:06:14.774Z,25.4
2022-11-01T13:07:31.878Z,24.8
2022-11-01T13:08:48.982Z,23.2
2022-11-01T13:10:06.086Z,24.1
2022-11-01T13:11:23.190Z,24.4
2022-11-01T13:12:40.294Z,23.8
2022-11-01T13:13:57.399Z,22.5
2022-11-01T13:15:14.503Z,25.1
2022-11-01T13:16:31.607Z,23.2
2022-11-01T13:19:05.815Z,23.2
2022-11-01T13:21:39.039Z,24.8
2022-11-01T13:22:56.144Z,24.4
2022-11-01T13:24:13.248Z,28
2022-11-01T13:25:30.352Z,24.4
2022-11-01T13:26:47.456Z,24.8
2022-11-01T13:28:04.560Z,24.1
2022-11-01T13:29:21.665Z,24.8
2022-11-01T13:30:38.769Z,23.2
2022-11-01T13:31:55.873Z,24.1
2022-11-01T13:33:12.977Z,25.1
2022-11-01T13:34:30.081Z,26.4
2022-11-01T13:35:47.186Z,24.4
2022-11-01T13:37:03.306Z,25.7
2022-11-01T13:38:20.410Z,25.4
2022-11-01T13:39:37.514Z,23.5
2022-11-01T13:40:54.618Z,25.1
2022-11-01T13:42:11.723Z,24.8
2022-11-01T13:43:28.827Z,24.4
2022-11-01T13:44:45.931Z,24.4
2022-11-01T13:46:03.035Z,26.1
2022-11-01T13:47:20.140Z,23.8
2022-11-01T13:48:37.244Z,24.1
2022-11-01T13:49:54.348Z,23.2
2022-11-01T13:51:11.452Z,23.8
2022-11-01T13:52:28.556Z,20.9
2022-11-01T13:53:44.676Z,23.5
2022-11-01T13:55:01.780Z,23.8
2022-11-01T13:56:18.885Z,24.8
2022-11-01T13:57:35.989Z,23.8
2022-11-01T13:58:53.093Z,23.2
2022-11-01T14:00:10.197Z,25.1
2022-11-01T14:01:27.301Z,25.4
2022-11-01T14:02:44.406Z,25.4
2022-11-01T14:04:01.510Z,23.2
2022-11-01T14:05:18.614Z,25.1
2022-11-01T14:06:35.718Z,22.8
2022-11-01T14:07:52.822Z,23.2
2022-11-01T14:09:09.927Z,23.8
2022-11-01T14:10:26.047Z,24.1
2022-11-01T14:11:43.151Z,24.4
2022-11-01T14:13:00.255Z,23.5
2022-11-01T14:14:17.359Z,23.8
2022-11-01T14:15:34.464Z,22.5
2022-11-01T14:16:51.569Z,22.2
2022-11-01T14:18:08.673Z,23.5
2022-11-01T14:19:25.777Z,23.8
2022-11-01T14:20:42.881Z,23.5
2022-11-01T14:21:59.986Z,22.8
2022-11-01T14:23:17.090Z,24.4
2022-11-01T14:24:34.194Z,23.8
2022-11-01T14:25:51.298Z,24.1
2022-11-01T14:27:07.418Z,23.8
2022-11-01T14:28:24.522Z,25.1
2022-11-01T14:29:41.627Z,23.5
2022-11-01T14:30:58.732Z,27
2022-11-01T14:32:15.836Z,23.5
2022-11-01T14:33:32.940Z,22.5
2022-11-01T14:34:50.046Z,22.8
2022-11-01T14:36:07.150Z,23.2
2022-11-01T14:37:24.254Z,23.5
2022-11-01T14:38:41.359Z,23.2
2022-11-01T14:39:58.463Z,24.1
2022-11-01T14:41:15.567Z,24.1
2022-11-01T14:42:32.672Z,22.5
2022-11-01T14:43:48.792Z,23.2
2022-11-01T14:45:05.896Z,24.8
2022-11-01T14:46:23.000Z,21.9
2022-11-01T14:47:40.104Z,22.8
2022-11-01T14:48:57.208Z,21.9
2022-11-01T14:50:14.312Z,25.1
2022-11-01T14:51:31.417Z,22.5
2022-11-01T14:52:48.521Z,22.5
2022-11-01T14:54:05.625Z,23.5
2022-11-01T14:55:22.729Z,23.5
2022-11-01T14:56:39.833Z,23.8
2022-11-01T14:57:56.938Z,23.5
2022-11-01T14:59:14.042Z,23.2
2022-11-01T15:00:30.162Z,23.8
2022-11-01T15:01:47.266Z,22.2
2022-11-01T15:03:04.370Z,23.2
2022-11-01T15:04:21.474Z,23.8
2022-11-01T15:05:38.579Z,23.5
2022-11-01T15:06:55.683Z,22.2
2022-11-01T15:08:11.803Z,21.9
2022-11-01T15:09:28.907Z,23.2
2022-11-01T15:10:46.011Z,23.5
2022-11-01T15:12:03.115Z,23.8
2022-11-01T15:13:20.220Z,22.8
2022-11-01T15:14:37.324Z,23.5
2022-11-01T15:15:54.428Z,23.5
2022-11-01T15:17:11.532Z,23.8
2022-11-01T15:18:28.636Z,22.8
2022-11-01T15:19:45.741Z,24.4
2022-11-01T15:21:02.845Z,23.2
2022-11-01T15:22:19.949Z,24.4
2022-11-01T15:23:37.053Z,23.8
2022-11-01T15:24:53.173Z,19.9
2022-11-01T15:26:10.277Z,23.2
2022-11-01T15:27:27.381Z,21.9
2022-11-01T15:28:44.486Z,22.8
2022-11-01T15:30:01.590Z,22.8
2022-11-01T15:31:18.694Z,21.9
2022-11-01T15:32:35.798Z,23.2
2022-11-01T15:33:52.903Z,22.8
2022-11-01T15:35:10.007Z,20.6
2022-11-01T15:36:27.111Z,23.2
2022-11-01T15:37:44.214Z,22.8
2022-11-01T15:39:01.319Z,21.2
2022-11-01T15:40:18.423Z,24.1
2022-11-01T15:41:34.543Z,22.8
2022-11-01T15:42:51.646Z,23.5
2022-11-01T15:44:08.750Z,23.2
2022-11-01T15:45:25.854Z,21.9
2022-11-01T15:46:42.958Z,21.5
2022-11-01T15:48:00.062Z,24.1
2022-11-01T15:49:17.166Z,22.8
2022-11-01T15:50:34.271Z,23.8
2022-11-01T15:51:51.374Z,24.4
2022-11-01T15:53:08.478Z,22.5
2022-11-01T15:54:25.582Z,24.1
2022-11-01T15:55:42.686Z,21.9
2022-11-01T15:56:59.790Z,24.4
2022-11-01T15:58:15.911Z,24.8
2022-11-01T15:59:33.015Z,21.5
2022-11-01T16:00:50.119Z,20.6
2022-11-01T16:02:07.223Z,22.8
2022-11-01T16:03:24.327Z,24.8
2022-11-01T16:04:41.431Z,24.8
2022-11-01T16:05:58.535Z,22.8
2022-11-01T16:07:15.639Z,22.8
2022-11-01T16:08:32.744Z,22.8
2022-11-01T16:09:49.848Z,24.4
2022-11-01T16:11:06.952Z,22.8
2022-11-01T16:12:24.057Z,22.2
2022-11-01T16:13:41.161Z,20.6
2022-11-01T16:14:57.282Z,22.5
2022-11-01T16:16:14.386Z,21.9
2022-11-01T16:17:31.491Z,22.2
2022-11-01T16:18:48.595Z,22.2
2022-11-01T16:20:05.700Z,22.5
2022-11-01T16:21:22.804Z,24.1
2022-11-01T16:22:39.908Z,21.2
2022-11-01T16:23:57.013Z,22.2
2022-11-01T16:25:14.117Z,22.5
2022-11-01T16:26:31.221Z,21.9
2022-11-01T16:27:48.326Z,21.2
2022-11-01T16:29:05.430Z,22.2
2022-11-01T16:30:22.534Z,20.3
2022-11-01T16:31:38.654Z,23.2
2022-11-01T16:32:55.758Z,21.9
2022-11-01T16:34:12.863Z,22.5
2022-11-01T16:35:29.967Z,21.5
2022-11-01T16:36:47.071Z,22.5
2022-11-01T16:38:04.176Z,20.6
2022-11-01T16:39:21.280Z,23.2
2022-11-01T16:40:38.384Z,22.2
2022-11-01T16:41:55.488Z,20.6
2022-11-01T16:43:12.592Z,22.2
2022-11-01T16:44:29.697Z,21.9
2022-11-01T16:45:46.801Z,21.9
2022-11-01T16:47:03.905Z,23.2
2022-11-01T16:48:20.026Z,21.9
2022-11-01T16:49:37.130Z,24.1
2022-11-01T16:50:54.234Z,22.5
2022-11-01T16:52:11.338Z,20.9
2022-11-01T16:53:28.442Z,22.2
2022-11-01T16:54:45.546Z,23.5
2022-11-01T16:56:02.651Z,23.5
2022-11-01T16:57:19.755Z,21.9
2022-11-01T16:58:36.859Z,21.9
2022-11-01T16:59:53.964Z,22.2
2022-11-01T17:01:11.069Z,20.3
2022-11-01T17:02:28.173Z,19.9
2022-11-01T17:03:45.277Z,22.5
2022-11-01T17:05:01.398Z,20.9
2022-11-01T17:06:18.502Z,21.9
2022-11-01T17:07:35.606Z,20.6
2022-11-01T17:08:52.710Z,21.5
2022-11-01T17:10:09.815Z,20.9